createdAt,value
2022-09-03T00:00:37.894Z,1.80
2022-09-03T00:03:10.801Z,1.83
2022-09-03T00:05:41.703Z,2.20
2022-09-03T00:08:12.988Z,1.98
2022-09-03T00:10:52.207Z,2.08
2022-09-03T00:13:31.541Z,1.88
2022-09-03T00:16:01.091Z,2.13
2022-09-03T00:18:31.119Z,1.80
2022-09-03T00:21:08.646Z,1.67
2022-09-03T00:23:39.762Z,1.90
2022-09-03T00:28:37.441Z,2.00
2022-09-03T00:31:27.533Z,1.85
2022-09-03T00:34:00.839Z,2.10
2022-09-03T00:36:34.480Z,2.03
2022-09-03T00:39:01.629Z,1.73
2022-09-03T00:41:41.621Z,1.90
2022-09-03T00:44:33.715Z,2.05
2022-09-03T00:47:04.005Z,1.80
2022-09-03T00:49:40.508Z,1.90
2022-09-03T00:52:12.552Z,1.98
2022-09-03T00:54:44.018Z,2.40
2022-09-03T00:57:14.244Z,2.08
2022-09-03T01:00:00.449Z,1.92
2022-09-03T01:02:30.876Z,2.20
2022-09-03T01:05:07.214Z,2.03
2022-09-03T01:07:35.088Z,1.80
2022-09-03T01:10:27.154Z,2.13
2022-09-03T01:13:00.901Z,2.10
2022-09-03T01:15:49.189Z,1.90
2022-09-03T01:18:22.484Z,1.90
2022-09-03T01:20:55.947Z,2.17
2022-09-03T01:23:37.813Z,2.10
2022-09-03T01:26:17.091Z,2.15
2022-09-03T01:28:56.633Z,2.13
2022-09-03T01:31:33.941Z,1.95
2022-09-03T01:34:01.464Z,2.30
2022-09-03T01:36:34.864Z,1.90
2022-09-03T01:39:13.132Z,2.25
2022-09-03T01:42:01.701Z,2.20
2022-09-03T01:44:32.830Z,2.30
2022-09-03T01:47:11.106Z,2.10
2022-09-03T01:49:57.847Z,2.67
2022-09-03T01:53:03.550Z,2.20
2022-09-03T01:55:40.110Z,1.85
2022-09-03T01:58:16.167Z,2.53
2022-09-03T02:00:44.886Z,2.13
2022-09-03T02:03:13.394Z,2.55
2022-09-03T02:05:43.832Z,2.55
2022-09-03T02:08:11.887Z,2.30
2022-09-03T02:10:41.102Z,2.45
2022-09-03T02:13:11.122Z,2.42
2022-09-03T02:15:40.730Z,2.28
2022-09-03T02:18:11.309Z,2.15
2022-09-03T02:20:39.271Z,2.50
2022-09-03T02:23:06.932Z,3.08
2022-09-03T02:25:37.579Z,2.28
2022-09-03T02:28:13.313Z,2.42
2022-09-03T02:30:44.986Z,2.22
2022-09-03T02:33:12.486Z,2.35
2022-09-03T02:35:40.737Z,2.88
2022-09-03T02:38:20.118Z,2.63
2022-09-03T02:40:47.443Z,2.78
2022-09-03T02:43:18.489Z,2.33
2022-09-03T02:45:47.791Z,2.35
2022-09-03T02:48:17.276Z,2.60
2022-09-03T02:50:44.630Z,2.40
2022-09-03T02:53:11.938Z,2.45
2022-09-03T02:55:39.207Z,2.40
2022-09-03T02:58:06.902Z,2.08
2022-09-03T03:00:35.004Z,2.20
2022-09-03T03:03:02.595Z,2.35
2022-09-03T03:05:47.114Z,2.20
2022-09-03T03:08:21.140Z,3.00
2022-09-03T03:10:49.567Z,2.35
2022-09-03T03:13:16.981Z,2.80
2022-09-03T03:15:44.558Z,2.30
2022-09-03T03:18:14.077Z,2.67
2022-09-03T03:20:42.080Z,2.45
2022-09-03T03:23:09.447Z,2.42
2022-09-03T03:25:37.815Z,2.63
2022-09-03T03:28:06.009Z,3.20
2022-09-03T03:30:33.875Z,2.55
2022-09-03T03:33:01.495Z,2.67
2022-09-03T03:35:29.005Z,2.53
2022-09-03T03:37:58.606Z,2.60
2022-09-03T03:40:26.085Z,2.78
2022-09-03T03:42:53.767Z,2.58
2022-09-03T03:45:21.259Z,2.70
2022-09-03T03:47:49.856Z,2.35
2022-09-03T03:50:17.385Z,2.30
2022-09-03T03:52:44.743Z,2.80
2022-09-03T03:55:12.104Z,2.67
2022-09-03T03:57:43.517Z,2.53
2022-09-03T04:00:10.921Z,3.00
2022-09-03T04:02:39.258Z,2.78
2022-09-03T04:05:06.836Z,2.60
2022-09-03T04:07:35.351Z,2.45
2022-09-03T04:10:02.578Z,2.45
2022-09-03T04:12:29.730Z,2.70
2022-09-03T04:14:56.817Z,2.58
2022-09-03T04:17:25.339Z,2.28
2022-09-03T04:19:52.661Z,2.70
2022-09-03T04:22:20.745Z,2.58
2022-09-03T04:24:47.950Z,2.35
2022-09-03T04:27:15.412Z,3.28
2022-09-03T04:29:42.781Z,2.70
2022-09-03T04:32:28.924Z,2.90
2022-09-03T04:34:57.416Z,2.70
2022-09-03T04:37:24.785Z,2.72
2022-09-03T04:39:52.944Z,2.50
2022-09-03T04:42:20.137Z,2.80
2022-09-03T04:44:47.500Z,2.60
2022-09-03T04:47:15.481Z,2.58
2022-09-03T04:49:42.838Z,2.30
2022-09-03T04:52:10.332Z,2.65
2022-09-03T04:54:37.572Z,2.40
2022-09-03T04:57:04.952Z,2.35
2022-09-03T04:59:32.348Z,2.83
2022-09-03T05:01:59.573Z,2.67
2022-09-03T05:04:27.110Z,2.65
2022-09-03T05:06:54.568Z,2.47
2022-09-03T05:09:21.782Z,2.53
2022-09-03T05:11:48.978Z,2.47
2022-09-03T05:14:16.153Z,2.33
2022-09-03T05:16:52.812Z,2.80
2022-09-03T05:19:20.718Z,2.33
2022-09-03T05:21:48.145Z,2.60
2022-09-03T05:24:15.901Z,2.25
2022-09-03T05:26:43.208Z,2.85
2022-09-03T05:29:10.465Z,2.33
2022-09-03T05:31:39.403Z,2.15
2022-09-03T05:34:07.173Z,2.25
2022-09-03T05:36:35.596Z,2.83
2022-09-03T05:39:03.056Z,2.70
2022-09-03T05:41:31.898Z,2.53
2022-09-03T05:43:59.736Z,2.60
2022-09-03T05:46:32.182Z,2.40
2022-09-03T05:49:03.931Z,2.40
2022-09-03T05:51:31.553Z,2.40
2022-09-03T05:53:59.305Z,2.10
2022-09-03T05:56:27.497Z,2.30
2022-09-03T05:58:55.764Z,2.17
2022-09-03T06:01:24.454Z,2.53
2022-09-03T06:04:01.497Z,2.70
2022-09-03T06:06:29.599Z,2.70
2022-09-03T06:08:58.293Z,2.50
2022-09-03T06:11:29.651Z,2.03
2022-09-03T06:14:08.155Z,2.40
2022-09-03T06:16:36.878Z,2.22
2022-09-03T06:19:09.538Z,2.33
2022-09-03T06:21:37.416Z,2.08
2022-09-03T06:24:04.972Z,2.40
2022-09-03T06:26:32.281Z,2.45
2022-09-03T06:29:00.019Z,2.28
2022-09-03T06:31:28.032Z,2.70
2022-09-03T06:33:59.655Z,2.30
2022-09-03T06:36:29.263Z,2.40
2022-09-03T06:38:58.463Z,2.05
2022-09-03T06:41:30.798Z,2.38
2022-09-03T06:44:01.624Z,2.53
2022-09-03T06:46:29.171Z,2.60
2022-09-03T06:48:56.617Z,2.35
2022-09-03T06:51:26.066Z,2.70
2022-09-03T06:53:59.805Z,2.15
2022-09-03T06:56:27.719Z,3.17
2022-09-03T06:58:58.949Z,2.60
2022-09-03T07:01:31.306Z,2.33
2022-09-03T07:04:01.026Z,2.85
2022-09-03T07:06:29.466Z,2.40
2022-09-03T07:08:59.770Z,2.20
2022-09-03T07:11:29.304Z,2.28
2022-09-03T07:13:56.940Z,2.40
2022-09-03T07:16:25.373Z,2.33
2022-09-03T07:18:52.818Z,2.50
2022-09-03T07:21:21.222Z,2.22
2022-09-03T07:23:49.486Z,2.40
2022-09-03T07:26:21.230Z,2.10
2022-09-03T07:28:49.123Z,2.40
2022-09-03T07:31:26.591Z,2.50
2022-09-03T07:33:57.324Z,2.45
2022-09-03T07:36:25.156Z,2.67
2022-09-03T07:38:55.536Z,2.15
2022-09-03T07:41:28.493Z,2.55
2022-09-03T07:43:57.228Z,2.50
2022-09-03T07:46:26.721Z,2.15
2022-09-03T07:48:58.488Z,2.67
2022-09-03T07:51:27.928Z,2.47
2022-09-03T07:53:56.309Z,2.53
2022-09-03T07:56:23.944Z,2.97
2022-09-03T07:58:51.416Z,2.72
2022-09-03T08:01:21.432Z,2.65
2022-09-03T08:03:49.966Z,2.50
2022-09-03T08:06:18.327Z,2.67
2022-09-03T08:08:46.369Z,2.60
2022-09-03T08:11:14.918Z,2.78
2022-09-03T08:13:43.988Z,2.92
2022-09-03T08:16:15.424Z,2.70
2022-09-03T08:18:43.119Z,2.97
2022-09-03T08:21:14.972Z,2.50
2022-09-03T08:23:44.203Z,2.72
2022-09-03T08:26:12.073Z,2.85
2022-09-03T08:28:39.296Z,2.60
2022-09-03T08:31:19.900Z,2.70
2022-09-03T08:33:49.090Z,3.13
2022-09-03T08:36:18.281Z,2.30
2022-09-03T08:38:46.348Z,3.00
2022-09-03T08:41:17.891Z,2.70
2022-09-03T08:44:11.694Z,2.47
2022-09-03T08:46:43.688Z,2.55
2022-09-03T08:49:12.228Z,2.80
2022-09-03T08:51:42.733Z,2.70
2022-09-03T08:54:11.506Z,2.58
2022-09-03T08:56:40.516Z,3.08
2022-09-03T08:59:07.690Z,2.85
2022-09-03T09:01:44.294Z,2.70
2022-09-03T09:04:11.847Z,2.90
2022-09-03T09:06:49.694Z,2.95
2022-09-03T09:09:23.020Z,2.92
2022-09-03T09:12:05.331Z,3.00
2022-09-03T09:14:39.364Z,2.85
2022-09-03T09:17:28.096Z,2.80
2022-09-03T09:20:04.987Z,3.13
2022-09-03T09:22:43.921Z,2.80
2022-09-03T09:25:18.533Z,3.00
2022-09-03T09:27:51.801Z,2.97
2022-09-03T09:30:20.379Z,3.38
2022-09-03T09:32:47.685Z,3.33
2022-09-03T09:35:15.877Z,3.20
2022-09-03T09:37:50.341Z,3.13
2022-09-03T09:40:25.600Z,3.20
2022-09-03T09:42:58.758Z,3.38
2022-09-03T09:45:25.917Z,3.35
2022-09-03T09:47:55.835Z,3.30
2022-09-03T09:50:26.086Z,3.60
2022-09-03T09:53:14.452Z,3.28
2022-09-03T09:55:51.893Z,3.00
2022-09-03T09:58:25.817Z,3.30
2022-09-03T10:00:57.006Z,3.15
2022-09-03T10:03:29.840Z,3.28
2022-09-03T10:06:25.221Z,3.60
2022-09-03T10:08:54.369Z,3.22
2022-09-03T10:11:25.696Z,2.78
2022-09-03T10:13:53.854Z,3.20
2022-09-03T10:16:23.624Z,3.42
2022-09-03T10:18:55.201Z,3.60
2022-09-03T10:21:53.040Z,2.80
2022-09-03T10:24:34.190Z,3.00
2022-09-03T10:27:01.788Z,2.90
2022-09-03T10:29:30.190Z,3.08
2022-09-03T10:32:22.984Z,3.08
2022-09-03T10:34:57.228Z,3.10
2022-09-03T10:37:50.940Z,2.95
2022-09-03T10:40:31.349Z,3.22
2022-09-03T10:43:17.600Z,3.10
2022-09-03T10:45:48.000Z,3.08
2022-09-03T10:48:18.092Z,2.53
2022-09-03T10:50:50.448Z,3.05
2022-09-03T10:53:40.479Z,3.05
2022-09-03T10:56:20.462Z,3.15
2022-09-03T10:58:47.726Z,2.72
2022-09-03T11:01:33.713Z,2.58
2022-09-03T11:04:00.958Z,2.65
2022-09-03T11:06:30.580Z,2.58
2022-09-03T11:09:18.176Z,2.20
2022-09-03T11:11:48.569Z,2.70
2022-09-03T11:14:19.073Z,2.78
2022-09-03T11:16:49.308Z,2.63
2022-09-03T11:19:22.587Z,2.40
2022-09-03T11:21:51.207Z,2.42
2022-09-03T11:24:22.302Z,2.92
2022-09-03T11:27:13.072Z,2.60
2022-09-03T11:29:49.839Z,2.80
2022-09-03T11:32:19.991Z,2.38
2022-09-03T11:34:48.629Z,2.92
2022-09-03T11:37:29.195Z,2.47
2022-09-03T12:46:10.442Z,2.22
2022-09-03T12:48:40.442Z,2.60
2022-09-03T12:53:58.181Z,2.50
2022-09-03T12:56:28.590Z,2.30
2022-09-03T12:59:08.628Z,2.75
2022-09-03T13:01:41.590Z,2.20
2022-09-03T13:04:15.586Z,2.22
2022-09-03T13:06:52.729Z,2.20
2022-09-03T13:09:30.270Z,2.10
2022-09-03T13:11:59.207Z,2.15
2022-09-03T13:14:29.303Z,2.47
2022-09-03T13:17:11.390Z,2.45
2022-09-03T13:19:54.325Z,2.03
2022-09-03T13:22:21.694Z,2.40
2022-09-03T13:25:02.075Z,2.25
2022-09-03T13:27:43.883Z,2.10
2022-09-03T13:30:18.939Z,1.98
2022-09-03T13:33:03.507Z,1.90
2022-09-03T13:35:32.394Z,1.80
2022-09-03T13:38:19.979Z,1.77
2022-09-03T13:40:56.316Z,2.00
2022-09-03T13:43:26.478Z,1.70
2022-09-03T13:45:59.889Z,1.60
2022-09-03T13:48:51.827Z,1.88
2022-09-03T13:51:26.419Z,1.98
2022-09-03T13:54:06.556Z,1.83
2022-09-03T13:56:35.692Z,1.60
2022-09-03T13:59:03.152Z,1.80
2022-09-03T14:01:49.499Z,1.67
2022-09-03T14:04:26.618Z,1.70
2022-09-03T14:07:07.297Z,2.05
2022-09-03T14:09:40.385Z,1.83
2022-09-03T14:12:20.385Z,1.85
2022-09-03T14:14:47.516Z,1.63
2022-09-03T14:17:26.928Z,1.55
2022-09-03T14:22:35.758Z,1.90
2022-09-03T14:25:06.284Z,2.03
2022-09-03T14:27:35.953Z,2.00
2022-09-03T14:30:23.393Z,1.83
2022-09-03T14:33:11.366Z,1.63
2022-09-03T14:35:38.684Z,2.00
2022-09-03T14:38:15.084Z,1.85
2022-09-03T14:40:45.489Z,2.10
2022-09-03T14:43:21.685Z,1.67
2022-09-03T14:45:51.864Z,1.95
2022-09-03T14:48:38.358Z,1.98
2022-09-03T14:51:08.290Z,2.00
2022-09-03T14:53:38.412Z,2.15
2022-09-03T14:56:14.921Z,1.73
2022-09-03T14:59:01.087Z,1.80
2022-09-03T15:01:29.903Z,10.00
2022-09-03T15:04:22.116Z,6.25
2022-09-03T15:07:08.340Z,11.20
2022-09-03T15:09:43.466Z,1.88
2022-09-03T15:12:46.009Z,2.03
2022-09-03T15:15:21.302Z,2.00
2022-09-03T15:18:07.349Z,1.80
2022-09-03T15:20:54.878Z,1.80
2022-09-03T15:23:26.876Z,1.73
2022-09-03T15:25:54.113Z,1.98
2022-09-03T15:28:21.554Z,1.85
2022-09-03T15:30:59.326Z,2.05
2022-09-03T15:33:29.984Z,2.10
2022-09-03T15:36:17.741Z,2.20
2022-09-03T15:38:51.313Z,2.10
2022-09-03T15:41:25.316Z,2.00
2022-09-03T15:43:58.871Z,2.40
2022-09-03T15:46:40.557Z,1.90
2022-09-03T15:49:13.132Z,1.88
2022-09-03T15:51:50.023Z,2.08
2022-09-03T15:54:20.729Z,1.83
2022-09-03T15:56:49.928Z,2.28
2022-09-03T15:59:35.896Z,2.28
2022-09-03T16:02:15.458Z,2.10
2022-09-03T16:05:05.968Z,1.95
2022-09-03T16:07:38.926Z,2.20
2022-09-03T16:10:26.609Z,2.10
2022-09-03T16:13:09.731Z,2.38
2022-09-03T16:16:00.655Z,2.10
2022-09-03T16:18:39.708Z,2.08
2022-09-03T16:21:10.034Z,2.13
2022-09-03T16:23:41.524Z,2.00
2022-09-03T16:26:11.777Z,1.85
2022-09-03T16:28:58.661Z,2.10
2022-09-03T16:31:44.639Z,2.08
2022-09-03T16:34:18.541Z,1.98
2022-09-03T16:36:46.037Z,1.70
2022-09-03T16:39:33.698Z,1.92
2022-09-03T16:42:13.366Z,1.98
2022-09-03T16:45:00.237Z,1.95
2022-09-03T16:47:46.095Z,2.10
2022-09-03T16:50:15.797Z,1.70
2022-09-03T16:52:43.177Z,1.85
2022-09-03T16:55:24.708Z,1.90
2022-09-03T16:57:58.300Z,1.63
2022-09-03T17:00:28.902Z,2.00
2022-09-03T17:02:56.249Z,1.70
2022-09-03T17:05:26.714Z,1.75
2022-09-03T17:07:54.293Z,2.50
2022-09-03T17:10:24.649Z,2.00
2022-09-03T17:13:11.809Z,1.92
2022-09-03T17:15:43.012Z,1.65
2022-09-03T17:18:27.644Z,1.90
2022-09-03T17:21:10.074Z,1.85
2022-09-03T17:23:40.081Z,1.90
2022-09-03T17:26:15.289Z,1.80
2022-09-03T17:29:02.081Z,2.03
2022-09-03T17:31:42.298Z,1.95
2022-09-03T17:34:19.621Z,1.90
2022-09-03T17:37:10.292Z,1.80
2022-09-03T17:40:01.710Z,1.63
2022-09-03T17:42:51.531Z,2.00
2022-09-03T17:45:34.110Z,1.87
2022-09-03T17:48:05.081Z,1.50
2022-09-03T17:50:35.856Z,1.80
2022-09-03T17:53:18.953Z,2.20
2022-09-03T17:55:53.712Z,1.80
2022-09-03T17:58:23.856Z,2.10
2022-09-03T18:01:14.479Z,1.77
2022-09-03T18:03:51.061Z,1.80
2022-09-03T18:06:36.919Z,1.90
2022-09-03T18:09:24.554Z,1.80
2022-09-03T18:11:56.394Z,2.65
2022-09-03T18:14:23.681Z,2.92
2022-09-03T18:16:53.816Z,2.30
2022-09-03T18:19:54.876Z,1.73
2022-09-03T18:22:46.028Z,1.90
2022-09-03T18:25:32.750Z,2.00
2022-09-03T18:28:26.102Z,1.90
2022-09-03T18:31:12.056Z,1.70
2022-09-03T18:33:58.345Z,1.80
2022-09-03T18:36:44.347Z,1.80
2022-09-03T18:39:39.819Z,1.75
2022-09-03T18:42:41.956Z,2.08
2022-09-03T18:45:42.293Z,2.08
2022-09-03T18:48:43.656Z,1.80
2022-09-03T18:51:43.574Z,1.90
2022-09-03T18:55:06.356Z,1.92
2022-09-03T18:57:51.677Z,2.00
2022-09-03T19:00:37.916Z,1.70
2022-09-03T19:03:42.528Z,1.70
2022-09-03T19:06:37.462Z,2.05
2022-09-03T19:09:29.376Z,2.15
2022-09-03T19:12:30.364Z,2.55
2022-09-03T19:18:21.092Z,2.00
2022-09-03T19:21:14.768Z,2.35
2022-09-03T19:24:00.625Z,2.08
2022-09-03T19:26:46.695Z,2.45
2022-09-03T19:30:05.161Z,2.25
2022-09-03T19:32:59.916Z,2.38
2022-09-03T19:35:51.492Z,2.10
2022-09-03T19:38:37.557Z,1.85
2022-09-03T19:41:27.422Z,1.70
2022-09-03T19:44:24.504Z,2.00
2022-09-03T19:47:11.980Z,1.90
2022-09-03T19:50:04.859Z,1.88
2022-09-03T19:52:50.966Z,2.45
2022-09-03T19:55:39.477Z,2.20
2022-09-03T19:58:41.907Z,2.10
2022-09-03T20:01:29.568Z,1.90
2022-09-03T20:04:18.626Z,1.95
2022-09-03T20:07:05.359Z,1.85
2022-09-03T20:09:53.767Z,1.90
2022-09-03T20:12:21.945Z,2.10
2022-09-03T20:14:49.237Z,1.98
2022-09-03T20:17:26.514Z,2.20
2022-09-03T20:19:56.814Z,2.38
2022-09-03T20:22:42.502Z,2.88
2022-09-03T20:25:17.827Z,2.70
2022-09-03T20:27:45.214Z,2.40
2022-09-03T20:30:23.196Z,2.58
2022-09-03T20:33:19.107Z,3.45
2022-09-03T20:36:05.925Z,3.10
2022-09-03T20:38:56.671Z,3.70
2022-09-03T20:41:30.363Z,3.90
2022-09-03T20:44:16.732Z,3.60
2022-09-03T20:46:57.627Z,3.85
2022-09-03T20:51:55.192Z,3.75
2022-09-03T20:54:31.318Z,3.90
2022-09-03T20:57:05.809Z,4.03
2022-09-03T20:59:52.048Z,3.70
2022-09-03T21:02:31.643Z,4.00
2022-09-03T21:05:18.203Z,3.60
2022-09-03T21:07:56.059Z,3.75
2022-09-03T21:10:33.201Z,3.72
2022-09-03T21:13:06.763Z,3.55
2022-09-03T21:15:40.464Z,3.88
2022-09-03T21:18:17.556Z,3.97
2022-09-03T21:20:51.396Z,3.95
2022-09-03T21:23:20.796Z,3.50
2022-09-03T21:26:07.903Z,4.22
2022-09-03T21:28:42.314Z,4.60
2022-09-03T21:31:32.611Z,4.90
2022-09-03T21:34:10.408Z,5.45
2022-09-03T21:36:42.374Z,7.05
2022-09-03T21:39:09.682Z,7.65
2022-09-03T21:41:49.614Z,8.52
2022-09-03T21:44:23.181Z,6.55
2022-09-03T21:46:55.758Z,5.95
2022-09-03T21:49:29.438Z,6.45
2022-09-03T21:52:02.791Z,5.60
2022-09-03T21:54:36.141Z,5.03
2022-09-03T21:57:13.981Z,4.93
2022-09-03T21:59:58.962Z,4.68
2022-09-03T22:02:32.463Z,4.57
2022-09-03T22:05:00.524Z,4.70
2022-09-03T22:07:38.196Z,4.72
2022-09-03T22:10:08.348Z,4.72
2022-09-03T22:12:43.609Z,4.68
2022-09-03T22:15:13.212Z,4.65
2022-09-03T22:17:58.820Z,4.90
2022-09-03T22:20:27.861Z,4.28
2022-09-03T22:22:59.252Z,4.43
2022-09-03T22:25:28.074Z,4.55
2022-09-03T22:28:00.866Z,4.78
2022-09-03T22:30:31.387Z,4.88
2022-09-03T22:33:08.877Z,4.57
2022-09-03T22:35:50.478Z,4.97
2022-09-03T22:38:36.737Z,5.10
2022-09-03T22:41:13.151Z,4.80
2022-09-03T22:43:41.930Z,5.00
2022-09-03T22:46:10.601Z,5.20
2022-09-03T22:48:53.203Z,4.80
2022-09-03T22:51:21.919Z,5.32
2022-09-03T22:54:08.157Z,5.15
2022-09-03T22:56:37.327Z,5.18
2022-09-03T22:59:04.665Z,5.45
2022-09-03T23:01:35.866Z,5.95
2022-09-03T23:04:09.279Z,5.32
2022-09-03T23:06:38.454Z,5.07
2022-09-03T23:09:07.716Z,5.90
2022-09-03T23:11:43.925Z,6.20
2022-09-03T23:14:41.346Z,5.63
2022-09-03T23:17:14.157Z,6.05
2022-09-03T23:19:43.894Z,5.22
2022-09-03T23:22:13.250Z,5.30
2022-09-03T23:24:58.905Z,5.75
2022-09-03T23:27:28.327Z,5.40
2022-09-03T23:29:56.688Z,5.63
2022-09-03T23:32:25.568Z,6.05
2022-09-03T23:34:56.021Z,6.38
2022-09-03T23:37:43.542Z,6.28
2022-09-03T23:40:11.807Z,6.43
2022-09-03T23:42:55.602Z,6.43
2022-09-03T23:45:32.536Z,6.35
2022-09-03T23:48:04.924Z,6.80
2022-09-03T23:50:46.317Z,6.40
2022-09-03T23:53:28.813Z,6.28
2022-09-03T23:56:16.991Z,7.00
2022-09-03T23:58:52.593Z,6.68
